sensor_id;sensor_type;location;lat;lon;timestamp;pressure;altitude;pressure_sealevel;temperature
12753;BMP180;6440;44.616;2.032;2022-09-23T00:00:07;99072;;;13.30
12753;BMP180;6440;44.616;2.032;2022-09-23T00:02:36;99076;;;13.30
12753;BMP180;6440;44.616;2.032;2022-09-23T00:05:06;99077;;;13.30
12753;BMP180;6440;44.616;2.032;2022-09-23T00:07:35;99073;;;13.30
12753;BMP180;6440;44.616;2.032;2022-09-23T00:10:04;99073;;;13.30
12753;BMP180;6440;44.616;2.032;2022-09-23T00:12:33;99075;;;13.20
12753;BMP180;6440;44.616;2.032;2022-09-23T00:15:02;99079;;;13.10
12753;BMP180;6440;44.616;2.032;2022-09-23T00:17:30;99071;;;13.10
12753;BMP180;6440;44.616;2.032;2022-09-23T00:19:58;99073;;;13.00
12753;BMP180;6440;44.616;2.032;2022-09-23T00:22:27;99072;;;13.00
12753;BMP180;6440;44.616;2.032;2022-09-23T00:24:56;99069;;;13.00
12753;BMP180;6440;44.616;2.032;2022-09-23T00:27:25;99064;;;13.00
12753;BMP180;6440;44.616;2.032;2022-09-23T00:29:54;99068;;;12.90
12753;BMP180;6440;44.616;2.032;2022-09-23T00:32:22;99069;;;12.90
12753;BMP180;6440;44.616;2.032;2022-09-23T00:34:51;99069;;;12.90
12753;BMP180;6440;44.616;2.032;2022-09-23T00:37:19;99071;;;12.90
12753;BMP180;6440;44.616;2.032;2022-09-23T00:39:48;99072;;;12.90
12753;BMP180;6440;44.616;2.032;2022-09-23T00:42:18;99066;;;13.00
12753;BMP180;6440;44.616;2.032;2022-09-23T00:44:50;99074;;;13.00
12753;BMP180;6440;44.616;2.032;2022-09-23T00:47:28;99076;;;13.00
12753;BMP180;6440;44.616;2.032;2022-09-23T00:49:55;99068;;;13.00
12753;BMP180;6440;44.616;2.032;2022-09-23T00:52:22;99064;;;12.90
12753;BMP180;6440;44.616;2.032;2022-09-23T00:54:50;99067;;;12.90
12753;BMP180;6440;44.616;2.032;2022-09-23T00:57:17;99069;;;12.90
12753;BMP180;6440;44.616;2.032;2022-09-23T00:59:45;99061;;;12.80
12753;BMP180;6440;44.616;2.032;2022-09-23T01:02:13;99072;;;12.70
12753;BMP180;6440;44.616;2.032;2022-09-23T01:04:41;99068;;;12.70
12753;BMP180;6440;44.616;2.032;2022-09-23T01:07:10;99068;;;12.60
12753;BMP180;6440;44.616;2.032;2022-09-23T01:09:38;99071;;;12.60
12753;BMP180;6440;44.616;2.032;2022-09-23T01:12:23;99073;;;12.60
12753;BMP180;6440;44.616;2.032;2022-09-23T01:14:54;99071;;;12.70
12753;BMP180;6440;44.616;2.032;2022-09-23T01:21:13;99075;;;12.80
12753;BMP180;6440;44.616;2.032;2022-09-23T01:26:42;99067;;;12.80
12753;BMP180;6440;44.616;2.032;2022-09-23T01:29:44;99061;;;12.70
12753;BMP180;6440;44.616;2.032;2022-09-23T01:32:53;99061;;;12.70
12753;BMP180;6440;44.616;2.032;2022-09-23T01:35:26;99050;;;12.70
12753;BMP180;6440;44.616;2.032;2022-09-23T01:43:57;99060;;;12.50
12753;BMP180;6440;44.616;2.032;2022-09-23T01:46:25;99056;;;12.60
12753;BMP180;6440;44.616;2.032;2022-09-23T01:48:54;99054;;;12.60
12753;BMP180;6440;44.616;2.032;2022-09-23T01:51:28;99057;;;12.60
12753;BMP180;6440;44.616;2.032;2022-09-23T01:54:15;99055;;;12.70
12753;BMP180;6440;44.616;2.032;2022-09-23T01:56:44;99060;;;12.60
12753;BMP180;6440;44.616;2.032;2022-09-23T01:59:18;99064;;;12.60
12753;BMP180;6440;44.616;2.032;2022-09-23T02:01:50;99059;;;12.60
12753;BMP180;6440;44.616;2.032;2022-09-23T02:04:24;99057;;;12.60
12753;BMP180;6440;44.616;2.032;2022-09-23T02:06:53;99053;;;12.50
12753;BMP180;6440;44.616;2.032;2022-09-23T02:09:21;99061;;;12.60
12753;BMP180;6440;44.616;2.032;2022-09-23T02:11:48;99056;;;12.60
12753;BMP180;6440;44.616;2.032;2022-09-23T02:14:20;99059;;;12.50
12753;BMP180;6440;44.616;2.032;2022-09-23T02:16:48;99060;;;12.50
12753;BMP180;6440;44.616;2.032;2022-09-23T02:19:28;99059;;;12.60
12753;BMP180;6440;44.616;2.032;2022-09-23T02:21:59;99058;;;12.50
12753;BMP180;6440;44.616;2.032;2022-09-23T02:24:29;99057;;;12.50
12753;BMP180;6440;44.616;2.032;2022-09-23T02:29:50;99047;;;12.50
12753;BMP180;6440;44.616;2.032;2022-09-23T02:32:33;99055;;;12.40
12753;BMP180;6440;44.616;2.032;2022-09-23T02:35:25;99060;;;12.40
12753;BMP180;6440;44.616;2.032;2022-09-23T02:38:16;99066;;;12.40
12753;BMP180;6440;44.616;2.032;2022-09-23T02:46:19;99067;;;12.30
12753;BMP180;6440;44.616;2.032;2022-09-23T02:48:50;99068;;;12.30
12753;BMP180;6440;44.616;2.032;2022-09-23T02:51:18;99064;;;12.20
12753;BMP180;6440;44.616;2.032;2022-09-23T02:53:46;99067;;;12.20
12753;BMP180;6440;44.616;2.032;2022-09-23T02:56:16;99060;;;12.20
12753;BMP180;6440;44.616;2.032;2022-09-23T02:58:42;99067;;;12.10
12753;BMP180;6440;44.616;2.032;2022-09-23T03:07:20;99057;;;12.00
12753;BMP180;6440;44.616;2.032;2022-09-23T03:10:18;99048;;;12.10
12753;BMP180;6440;44.616;2.032;2022-09-23T03:13:03;99052;;;12.00
12753;BMP180;6440;44.616;2.032;2022-09-23T03:15:48;99050;;;11.90
12753;BMP180;6440;44.616;2.032;2022-09-23T03:18:17;99055;;;11.90
12753;BMP180;6440;44.616;2.032;2022-09-23T03:20:45;99047;;;12.00
12753;BMP180;6440;44.616;2.032;2022-09-23T03:23:11;99054;;;11.90
12753;BMP180;6440;44.616;2.032;2022-09-23T03:25:40;99048;;;11.90
12753;BMP180;6440;44.616;2.032;2022-09-23T03:28:07;99044;;;12.00
12753;BMP180;6440;44.616;2.032;2022-09-23T03:30:35;99044;;;11.90
12753;BMP180;6440;44.616;2.032;2022-09-23T03:33:03;99050;;;11.80
12753;BMP180;6440;44.616;2.032;2022-09-23T03:35:31;99066;;;11.80
12753;BMP180;6440;44.616;2.032;2022-09-23T03:38:10;99051;;;11.80
12753;BMP180;6440;44.616;2.032;2022-09-23T03:40:38;99056;;;11.80
12753;BMP180;6440;44.616;2.032;2022-09-23T03:43:04;99054;;;11.80
12753;BMP180;6440;44.616;2.032;2022-09-23T03:45:33;99050;;;11.80
12753;BMP180;6440;44.616;2.032;2022-09-23T03:48:02;99067;;;11.90
12753;BMP180;6440;44.616;2.032;2022-09-23T03:50:30;99050;;;11.80
12753;BMP180;6440;44.616;2.032;2022-09-23T03:52:58;99043;;;11.80
12753;BMP180;6440;44.616;2.032;2022-09-23T03:55:27;99042;;;11.70
12753;BMP180;6440;44.616;2.032;2022-09-23T03:57:55;99044;;;11.70
12753;BMP180;6440;44.616;2.032;2022-09-23T04:00:24;99047;;;11.80
12753;BMP180;6440;44.616;2.032;2022-09-23T04:02:53;99042;;;11.70
12753;BMP180;6440;44.616;2.032;2022-09-23T04:05:22;99048;;;11.70
12753;BMP180;6440;44.616;2.032;2022-09-23T04:07:51;99051;;;11.70
12753;BMP180;6440;44.616;2.032;2022-09-23T04:10:20;99049;;;11.70
12753;BMP180;6440;44.616;2.032;2022-09-23T04:12:49;99054;;;11.70
12753;BMP180;6440;44.616;2.032;2022-09-23T04:15:18;99044;;;11.70
12753;BMP180;6440;44.616;2.032;2022-09-23T04:17:47;99055;;;11.60
12753;BMP180;6440;44.616;2.032;2022-09-23T04:20:16;99053;;;11.70
12753;BMP180;6440;44.616;2.032;2022-09-23T04:22:45;99058;;;11.60
12753;BMP180;6440;44.616;2.032;2022-09-23T04:25:14;99053;;;11.60
12753;BMP180;6440;44.616;2.032;2022-09-23T04:27:43;99059;;;11.60
12753;BMP180;6440;44.616;2.032;2022-09-23T04:30:12;99060;;;11.70
12753;BMP180;6440;44.616;2.032;2022-09-23T04:32:41;99061;;;11.70
12753;BMP180;6440;44.616;2.032;2022-09-23T04:35:10;99056;;;11.60
12753;BMP180;6440;44.616;2.032;2022-09-23T04:37:39;99067;;;11.70
12753;BMP180;6440;44.616;2.032;2022-09-23T04:40:09;99066;;;11.70
12753;BMP180;6440;44.616;2.032;2022-09-23T04:42:38;99065;;;11.60
12753;BMP180;6440;44.616;2.032;2022-09-23T04:45:08;99065;;;11.60
12753;BMP180;6440;44.616;2.032;2022-09-23T04:47:37;99059;;;11.70
12753;BMP180;6440;44.616;2.032;2022-09-23T04:50:07;99066;;;11.70
12753;BMP180;6440;44.616;2.032;2022-09-23T04:52:36;99070;;;11.70
12753;BMP180;6440;44.616;2.032;2022-09-23T04:55:07;99069;;;11.70
12753;BMP180;6440;44.616;2.032;2022-09-23T04:57:36;99062;;;11.80
12753;BMP180;6440;44.616;2.032;2022-09-23T05:00:07;99060;;;11.80
12753;BMP180;6440;44.616;2.032;2022-09-23T05:02:40;99065;;;11.80
12753;BMP180;6440;44.616;2.032;2022-09-23T05:05:04;99054;;;11.80
12753;BMP180;6440;44.616;2.032;2022-09-23T05:07:33;99058;;;11.70
12753;BMP180;6440;44.616;2.032;2022-09-23T05:10:02;99050;;;11.70
12753;BMP180;6440;44.616;2.032;2022-09-23T05:12:31;99044;;;11.70
12753;BMP180;6440;44.616;2.032;2022-09-23T05:15:00;99049;;;11.80
12753;BMP180;6440;44.616;2.032;2022-09-23T05:17:28;99054;;;11.80
12753;BMP180;6440;44.616;2.032;2022-09-23T05:19:57;99049;;;11.70
12753;BMP180;6440;44.616;2.032;2022-09-23T05:22:25;99049;;;11.70
12753;BMP180;6440;44.616;2.032;2022-09-23T05:24:54;99059;;;11.80
12753;BMP180;6440;44.616;2.032;2022-09-23T05:27:23;99054;;;11.80
12753;BMP180;6440;44.616;2.032;2022-09-23T05:29:52;99063;;;11.70
12753;BMP180;6440;44.616;2.032;2022-09-23T05:32:20;99067;;;11.70
12753;BMP180;6440;44.616;2.032;2022-09-23T05:34:49;99070;;;11.70
12753;BMP180;6440;44.616;2.032;2022-09-23T05:37:18;99077;;;11.70
12753;BMP180;6440;44.616;2.032;2022-09-23T05:39:47;99079;;;11.70
12753;BMP180;6440;44.616;2.032;2022-09-23T05:42:15;99086;;;11.80
12753;BMP180;6440;44.616;2.032;2022-09-23T05:44:43;99076;;;11.80
12753;BMP180;6440;44.616;2.032;2022-09-23T05:47:12;99079;;;11.70
12753;BMP180;6440;44.616;2.032;2022-09-23T05:49:41;99079;;;11.70
12753;BMP180;6440;44.616;2.032;2022-09-23T05:52:10;99075;;;11.70
12753;BMP180;6440;44.616;2.032;2022-09-23T05:54:39;99075;;;11.70
12753;BMP180;6440;44.616;2.032;2022-09-23T05:57:08;99080;;;11.80
12753;BMP180;6440;44.616;2.032;2022-09-23T05:59:37;99073;;;11.80
12753;BMP180;6440;44.616;2.032;2022-09-23T06:02:07;99077;;;11.90
12753;BMP180;6440;44.616;2.032;2022-09-23T06:04:34;99079;;;11.90
12753;BMP180;6440;44.616;2.032;2022-09-23T06:07:03;99068;;;11.90
12753;BMP180;6440;44.616;2.032;2022-09-23T06:09:32;99071;;;12.00
12753;BMP180;6440;44.616;2.032;2022-09-23T06:12:02;99072;;;12.00
12753;BMP180;6440;44.616;2.032;2022-09-23T06:14:30;99072;;;12.10
12753;BMP180;6440;44.616;2.032;2022-09-23T06:16:59;99071;;;12.10
12753;BMP180;6440;44.616;2.032;2022-09-23T06:19:28;99063;;;12.20
12753;BMP180;6440;44.616;2.032;2022-09-23T06:21:57;99063;;;12.30
12753;BMP180;6440;44.616;2.032;2022-09-23T06:24:26;99068;;;12.40
12753;BMP180;6440;44.616;2.032;2022-09-23T06:26:55;99071;;;12.40
12753;BMP180;6440;44.616;2.032;2022-09-23T06:29:24;99074;;;12.40
12753;BMP180;6440;44.616;2.032;2022-09-23T06:31:54;99076;;;12.50
12753;BMP180;6440;44.616;2.032;2022-09-23T06:34:23;99077;;;12.60
12753;BMP180;6440;44.616;2.032;2022-09-23T06:36:52;99076;;;12.60
12753;BMP180;6440;44.616;2.032;2022-09-23T06:39:21;99091;;;12.70
12753;BMP180;6440;44.616;2.032;2022-09-23T06:41:50;99066;;;12.80
12753;BMP180;6440;44.616;2.032;2022-09-23T06:44:19;99065;;;12.90
12753;BMP180;6440;44.616;2.032;2022-09-23T06:46:49;99071;;;13.00
12753;BMP180;6440;44.616;2.032;2022-09-23T06:49:17;99075;;;13.10
12753;BMP180;6440;44.616;2.032;2022-09-23T06:51:45;99076;;;13.20
12753;BMP180;6440;44.616;2.032;2022-09-23T06:54:14;99084;;;13.30
12753;BMP180;6440;44.616;2.032;2022-09-23T06:56:43;99083;;;13.50
12753;BMP180;6440;44.616;2.032;2022-09-23T06:59:12;99082;;;13.50
12753;BMP180;6440;44.616;2.032;2022-09-23T07:01:40;99082;;;13.70
12753;BMP180;6440;44.616;2.032;2022-09-23T07:04:09;99089;;;13.90
12753;BMP180;6440;44.616;2.032;2022-09-23T07:06:37;99112;;;14.10
12753;BMP180;6440;44.616;2.032;2022-09-23T07:09:06;99086;;;14.20
12753;BMP180;6440;44.616;2.032;2022-09-23T07:11:34;99082;;;14.40
12753;BMP180;6440;44.616;2.032;2022-09-23T07:14:03;99083;;;14.60
12753;BMP180;6440;44.616;2.032;2022-09-23T07:16:31;99085;;;14.80
12753;BMP180;6440;44.616;2.032;2022-09-23T07:19:01;99078;;;15.00
12753;BMP180;6440;44.616;2.032;2022-09-23T07:21:30;99083;;;15.10
12753;BMP180;6440;44.616;2.032;2022-09-23T07:23:58;99084;;;15.30
12753;BMP180;6440;44.616;2.032;2022-09-23T07:26:27;99085;;;15.50
12753;BMP180;6440;44.616;2.032;2022-09-23T07:28:55;99094;;;15.70
12753;BMP180;6440;44.616;2.032;2022-09-23T07:31:23;99086;;;15.90
12753;BMP180;6440;44.616;2.032;2022-09-23T07:33:54;99091;;;16.00
12753;BMP180;6440;44.616;2.032;2022-09-23T07:36:20;99098;;;16.30
12753;BMP180;6440;44.616;2.032;2022-09-23T07:38:49;99095;;;16.60
12753;BMP180;6440;44.616;2.032;2022-09-23T07:41:17;99098;;;16.90
12753;BMP180;6440;44.616;2.032;2022-09-23T07:43:45;99103;;;17.40
12753;BMP180;6440;44.616;2.032;2022-09-23T07:46:15;99096;;;17.50
12753;BMP180;6440;44.616;2.032;2022-09-23T07:48:42;99091;;;17.60
12753;BMP180;6440;44.616;2.032;2022-09-23T07:51:11;99082;;;17.70
12753;BMP180;6440;44.616;2.032;2022-09-23T07:53:39;99079;;;18.00
12753;BMP180;6440;44.616;2.032;2022-09-23T07:56:08;99087;;;18.50
12753;BMP180;6440;44.616;2.032;2022-09-23T07:58:37;99085;;;18.60
12753;BMP180;6440;44.616;2.032;2022-09-23T08:01:07;99082;;;18.80
12753;BMP180;6440;44.616;2.032;2022-09-23T08:03:34;99076;;;19.20
12753;BMP180;6440;44.616;2.032;2022-09-23T08:06:04;99097;;;19.90
12753;BMP180;6440;44.616;2.032;2022-09-23T08:08:32;99093;;;20.60
12753;BMP180;6440;44.616;2.032;2022-09-23T08:11:04;99095;;;20.70
12753;BMP180;6440;44.616;2.032;2022-09-23T08:13:32;99092;;;19.90
12753;BMP180;6440;44.616;2.032;2022-09-23T08:16:00;99089;;;20.90
12753;BMP180;6440;44.616;2.032;2022-09-23T08:18:29;99095;;;21.30
12753;BMP180;6440;44.616;2.032;2022-09-23T08:20:57;99093;;;21.80
12753;BMP180;6440;44.616;2.032;2022-09-23T08:23:26;99094;;;22.30
12753;BMP180;6440;44.616;2.032;2022-09-23T08:25:57;99097;;;23.10
12753;BMP180;6440;44.616;2.032;2022-09-23T08:28:25;99089;;;23.60
12753;BMP180;6440;44.616;2.032;2022-09-23T08:30:53;99095;;;24.30
12753;BMP180;6440;44.616;2.032;2022-09-23T08:33:21;99095;;;25.40
12753;BMP180;6440;44.616;2.032;2022-09-23T08:35:48;99097;;;25.90
12753;BMP180;6440;44.616;2.032;2022-09-23T08:38:17;99095;;;24.70
12753;BMP180;6440;44.616;2.032;2022-09-23T08:40:46;99091;;;25.00
12753;BMP180;6440;44.616;2.032;2022-09-23T08:43:27;99092;;;25.80
12753;BMP180;6440;44.616;2.032;2022-09-23T08:45:54;99083;;;25.70
12753;BMP180;6440;44.616;2.032;2022-09-23T08:48:27;99081;;;25.80
12753;BMP180;6440;44.616;2.032;2022-09-23T08:50:55;99086;;;27.30
12753;BMP180;6440;44.616;2.032;2022-09-23T08:53:26;99090;;;27.10
12753;BMP180;6440;44.616;2.032;2022-09-23T08:55:54;99097;;;26.70
12753;BMP180;6440;44.616;2.032;2022-09-23T08:58:52;99093;;;26.10
12753;BMP180;6440;44.616;2.032;2022-09-23T09:03:57;99090;;;25.20
12753;BMP180;6440;44.616;2.032;2022-09-23T09:06:33;99090;;;25.20
12753;BMP180;6440;44.616;2.032;2022-09-23T09:08:59;99088;;;24.50
12753;BMP180;6440;44.616;2.032;2022-09-23T09:11:42;99073;;;24.10
12753;BMP180;6440;44.616;2.032;2022-09-23T09:15:22;99067;;;23.40
12753;BMP180;6440;44.616;2.032;2022-09-23T09:17:02;99068;;;23.80
12753;BMP180;6440;44.616;2.032;2022-09-23T09:19:56;99062;;;23.00
12753;BMP180;6440;44.616;2.032;2022-09-23T09:22:59;99073;;;23.80
12753;BMP180;6440;44.616;2.032;2022-09-23T09:25:31;99078;;;24.50
12753;BMP180;6440;44.616;2.032;2022-09-23T09:27:54;99075;;;25.40
12753;BMP180;6440;44.616;2.032;2022-09-23T09:30:22;99068;;;26.30
12753;BMP180;6440;44.616;2.032;2022-09-23T09:33:00;99087;;;26.30
12753;BMP180;6440;44.616;2.032;2022-09-23T09:35:37;99078;;;25.80
12753;BMP180;6440;44.616;2.032;2022-09-23T09:38:03;99080;;;25.70
12753;BMP180;6440;44.616;2.032;2022-09-23T09:40:31;99075;;;25.60
12753;BMP180;6440;44.616;2.032;2022-09-23T09:42:59;99071;;;25.60
12753;BMP180;6440;44.616;2.032;2022-09-23T09:45:38;99071;;;25.90
12753;BMP180;6440;44.616;2.032;2022-09-23T09:48:05;99061;;;26.30
12753;BMP180;6440;44.616;2.032;2022-09-23T09:50:52;99059;;;26.20
12753;BMP180;6440;44.616;2.032;2022-09-23T09:53:22;99052;;;27.00
12753;BMP180;6440;44.616;2.032;2022-09-23T09:56:01;99054;;;26.70
12753;BMP180;6440;44.616;2.032;2022-09-23T09:58:32;99048;;;27.20
12753;BMP180;6440;44.616;2.032;2022-09-23T10:00:57;99043;;;27.60
12753;BMP180;6440;44.616;2.032;2022-09-23T10:03:29;99048;;;28.20
12753;BMP180;6440;44.616;2.032;2022-09-23T10:05:52;99048;;;28.90
12753;BMP180;6440;44.616;2.032;2022-09-23T10:08:31;99040;;;28.70
12753;BMP180;6440;44.616;2.032;2022-09-23T10:11:02;99040;;;29.40
12753;BMP180;6440;44.616;2.032;2022-09-23T10:13:29;99033;;;29.40
12753;BMP180;6440;44.616;2.032;2022-09-23T10:15:57;98970;;;29.70
12753;BMP180;6440;44.616;2.032;2022-09-23T10:18:35;99016;;;29.50
12753;BMP180;6440;44.616;2.032;2022-09-23T10:21:07;99025;;;30.10
12753;BMP180;6440;44.616;2.032;2022-09-23T10:23:36;99013;;;29.60
12753;BMP180;6440;44.616;2.032;2022-09-23T10:26:02;99018;;;29.10
12753;BMP180;6440;44.616;2.032;2022-09-23T10:28:47;99014;;;29.00
12753;BMP180;6440;44.616;2.032;2022-09-23T10:31:21;99005;;;29.10
12753;BMP180;6440;44.616;2.032;2022-09-23T10:33:48;98997;;;28.90
12753;BMP180;6440;44.616;2.032;2022-09-23T10:36:16;99007;;;29.30
12753;BMP180;6440;44.616;2.032;2022-09-23T10:38:43;98995;;;28.60
12753;BMP180;6440;44.616;2.032;2022-09-23T10:41:16;98999;;;29.20
12753;BMP180;6440;44.616;2.032;2022-09-23T10:44:00;98999;;;29.30
12753;BMP180;6440;44.616;2.032;2022-09-23T10:46:43;99003;;;29.70
12753;BMP180;6440;44.616;2.032;2022-09-23T10:49:36;98998;;;29.40
12753;BMP180;6440;44.616;2.032;2022-09-23T10:52:29;98990;;;29.30
12753;BMP180;6440;44.616;2.032;2022-09-23T10:55:05;98992;;;30.00
12753;BMP180;6440;44.616;2.032;2022-09-23T10:57:41;98996;;;30.50
12753;BMP180;6440;44.616;2.032;2022-09-23T11:00:21;98989;;;30.50
12753;BMP180;6440;44.616;2.032;2022-09-23T11:03:23;98984;;;30.40
12753;BMP180;6440;44.616;2.032;2022-09-23T11:05:58;98982;;;30.10
12753;BMP180;6440;44.616;2.032;2022-09-23T11:09:39;98978;;;29.70
12753;BMP180;6440;44.616;2.032;2022-09-23T11:14:43;98976;;;29.90
12753;BMP180;6440;44.616;2.032;2022-09-23T11:17:29;98975;;;30.10
12753;BMP180;6440;44.616;2.032;2022-09-23T11:20:18;98986;;;29.70
12753;BMP180;6440;44.616;2.032;2022-09-23T11:26:00;98976;;;29.90
12753;BMP180;6440;44.616;2.032;2022-09-23T11:29:24;98973;;;29.90
12753;BMP180;6440;44.616;2.032;2022-09-23T11:31:46;98959;;;30.20
12753;BMP180;6440;44.616;2.032;2022-09-23T11:34:28;98949;;;30.10
12753;BMP180;6440;44.616;2.032;2022-09-23T11:37:05;98936;;;30.40
12753;BMP180;6440;44.616;2.032;2022-09-23T11:39:41;98922;;;30.30
12753;BMP180;6440;44.616;2.032;2022-09-23T11:42:12;98935;;;30.40
12753;BMP180;6440;44.616;2.032;2022-09-23T11:44:40;98945;;;30.70
12753;BMP180;6440;44.616;2.032;2022-09-23T11:47:13;98943;;;30.90
12753;BMP180;6440;44.616;2.032;2022-09-23T11:49:47;98942;;;30.60
12753;BMP180;6440;44.616;2.032;2022-09-23T11:52:27;98936;;;30.30
12753;BMP180;6440;44.616;2.032;2022-09-23T11:55:14;98940;;;30.00
12753;BMP180;6440;44.616;2.032;2022-09-23T11:57:52;98925;;;29.80
12753;BMP180;6440;44.616;2.032;2022-09-23T12:00:23;98924;;;29.60
12753;BMP180;6440;44.616;2.032;2022-09-23T12:05:46;98927;;;28.80
12753;BMP180;6440;44.616;2.032;2022-09-23T12:08:27;98935;;;29.10
12753;BMP180;6440;44.616;2.032;2022-09-23T12:11:24;98929;;;29.20
12753;BMP180;6440;44.616;2.032;2022-09-23T12:14:29;98932;;;29.20
12753;BMP180;6440;44.616;2.032;2022-09-23T12:17:19;98923;;;29.40
12753;BMP180;6440;44.616;2.032;2022-09-23T12:20:21;98917;;;29.50
12753;BMP180;6440;44.616;2.032;2022-09-23T12:22:56;98910;;;29.30
12753;BMP180;6440;44.616;2.032;2022-09-23T12:25:45;98900;;;29.30
12753;BMP180;6440;44.616;2.032;2022-09-23T12:28:21;98893;;;29.40
12753;BMP180;6440;44.616;2.032;2022-09-23T12:30:49;98884;;;29.40
12753;BMP180;6440;44.616;2.032;2022-09-23T12:33:25;98886;;;29.40
12753;BMP180;6440;44.616;2.032;2022-09-23T12:36:02;98883;;;29.40
12753;BMP180;6440;44.616;2.032;2022-09-23T12:38:39;98874;;;29.20
12753;BMP180;6440;44.616;2.032;2022-09-23T12:41:25;98866;;;29.30
12753;BMP180;6440;44.616;2.032;2022-09-23T12:43:55;98856;;;29.20
12753;BMP180;6440;44.616;2.032;2022-09-23T12:46:25;98855;;;29.20
12753;BMP180;6440;44.616;2.032;2022-09-23T12:49:00;98857;;;29.00
12753;BMP180;6440;44.616;2.032;2022-09-23T12:51:34;98848;;;28.90
12753;BMP180;6440;44.616;2.032;2022-09-23T12:54:14;98842;;;29.00
12753;BMP180;6440;44.616;2.032;2022-09-23T12:56:58;98859;;;29.50
12753;BMP180;6440;44.616;2.032;2022-09-23T12:59:50;98865;;;29.40
12753;BMP180;6440;44.616;2.032;2022-09-23T13:02:20;98848;;;29.60
12753;BMP180;6440;44.616;2.032;2022-09-23T13:04:52;98842;;;29.60
12753;BMP180;6440;44.616;2.032;2022-09-23T13:07:24;98841;;;29.70
12753;BMP180;6440;44.616;2.032;2022-09-23T13:10:12;98836;;;29.40
12753;BMP180;6440;44.616;2.032;2022-09-23T13:12:38;98830;;;29.10
12753;BMP180;6440;44.616;2.032;2022-09-23T13:15:14;98831;;;29.10
12753;BMP180;6440;44.616;2.032;2022-09-23T13:17:41;98826;;;29.20
12753;BMP180;6440;44.616;2.032;2022-09-23T13:20:32;98824;;;29.30
12753;BMP180;6440;44.616;2.032;2022-09-23T13:23:25;98696;;;29.40
12753;BMP180;6440;44.616;2.032;2022-09-23T13:25:56;98817;;;29.50
12753;BMP180;6440;44.616;2.032;2022-09-23T13:28:38;98816;;;29.40
12753;BMP180;6440;44.616;2.032;2022-09-23T13:31:12;98818;;;29.40
12753;BMP180;6440;44.616;2.032;2022-09-23T13:33:45;98815;;;29.30
12753;BMP180;6440;44.616;2.032;2022-09-23T13:36:13;98816;;;29.30
12753;BMP180;6440;44.616;2.032;2022-09-23T13:38:39;98817;;;29.20
12753;BMP180;6440;44.616;2.032;2022-09-23T13:41:09;98818;;;29.10
12753;BMP180;6440;44.616;2.032;2022-09-23T13:43:36;98818;;;28.90
12753;BMP180;6440;44.616;2.032;2022-09-23T13:46:09;98813;;;28.80
12753;BMP180;6440;44.616;2.032;2022-09-23T13:48:36;98802;;;28.80
12753;BMP180;6440;44.616;2.032;2022-09-23T13:51:08;98805;;;28.70
12753;BMP180;6440;44.616;2.032;2022-09-23T13:53:33;98796;;;28.70
12753;BMP180;6440;44.616;2.032;2022-09-23T13:56:05;98796;;;28.70
12753;BMP180;6440;44.616;2.032;2022-09-23T13:58:33;98783;;;28.70
12753;BMP180;6440;44.616;2.032;2022-09-23T14:01:00;98778;;;28.80
12753;BMP180;6440;44.616;2.032;2022-09-23T14:03:30;98787;;;28.80
12753;BMP180;6440;44.616;2.032;2022-09-23T14:05:59;98799;;;28.80
12753;BMP180;6440;44.616;2.032;2022-09-23T14:08:27;98784;;;28.70
12753;BMP180;6440;44.616;2.032;2022-09-23T14:10:56;98787;;;28.80
12753;BMP180;6440;44.616;2.032;2022-09-23T14:13:29;98784;;;28.80
12753;BMP180;6440;44.616;2.032;2022-09-23T14:15:57;98783;;;28.80
12753;BMP180;6440;44.616;2.032;2022-09-23T14:18:32;98777;;;28.70
12753;BMP180;6440;44.616;2.032;2022-09-23T14:20:58;98781;;;28.60
12753;BMP180;6440;44.616;2.032;2022-09-23T14:23:26;98777;;;28.50
12753;BMP180;6440;44.616;2.032;2022-09-23T14:25:54;98773;;;28.70
12753;BMP180;6440;44.616;2.032;2022-09-23T14:28:22;98772;;;28.50
12753;BMP180;6440;44.616;2.032;2022-09-23T14:30:51;98770;;;28.40
12753;BMP180;6440;44.616;2.032;2022-09-23T14:33:22;98768;;;28.50
12753;BMP180;6440;44.616;2.032;2022-09-23T14:35:47;98778;;;28.40
12753;BMP180;6440;44.616;2.032;2022-09-23T14:38:19;98778;;;28.30
12753;BMP180;6440;44.616;2.032;2022-09-23T14:40:53;98778;;;28.10
12753;BMP180;6440;44.616;2.032;2022-09-23T14:43:27;98787;;;27.90
12753;BMP180;6440;44.616;2.032;2022-09-23T14:45:56;98780;;;27.70
12753;BMP180;6440;44.616;2.032;2022-09-23T14:48:23;98769;;;27.70
12753;BMP180;6440;44.616;2.032;2022-09-23T14:50:53;98774;;;27.60
12753;BMP180;6440;44.616;2.032;2022-09-23T14:53:44;98771;;;27.50
12753;BMP180;6440;44.616;2.032;2022-09-23T14:56:13;98765;;;27.50
12753;BMP180;6440;44.616;2.032;2022-09-23T14:58:49;98760;;;27.40
12753;BMP180;6440;44.616;2.032;2022-09-23T15:01:34;98764;;;27.60
12753;BMP180;6440;44.616;2.032;2022-09-23T15:04:13;98757;;;27.40
12753;BMP180;6440;44.616;2.032;2022-09-23T15:06:51;98757;;;27.50
12753;BMP180;6440;44.616;2.032;2022-09-23T15:09:21;98755;;;27.30
12753;BMP180;6440;44.616;2.032;2022-09-23T15:11:47;98758;;;27.50
12753;BMP180;6440;44.616;2.032;2022-09-23T15:14:15;98760;;;27.30
12753;BMP180;6440;44.616;2.032;2022-09-23T15:16:44;98758;;;27.20
12753;BMP180;6440;44.616;2.032;2022-09-23T15:19:13;98751;;;27.10
12753;BMP180;6440;44.616;2.032;2022-09-23T15:21:39;98744;;;27.00
12753;BMP180;6440;44.616;2.032;2022-09-23T15:26:54;98737;;;26.90
12753;BMP180;6440;44.616;2.032;2022-09-23T15:29:20;98732;;;26.90
12753;BMP180;6440;44.616;2.032;2022-09-23T15:31:49;98733;;;26.90
12753;BMP180;6440;44.616;2.032;2022-09-23T15:34:17;98736;;;27.00
12753;BMP180;6440;44.616;2.032;2022-09-23T15:36:45;98735;;;27.10
12753;BMP180;6440;44.616;2.032;2022-09-23T15:39:13;98737;;;27.10
12753;BMP180;6440;44.616;2.032;2022-09-23T15:41:41;98731;;;27.10
12753;BMP180;6440;44.616;2.032;2022-09-23T15:44:20;98730;;;27.10
12753;BMP180;6440;44.616;2.032;2022-09-23T15:46:44;98733;;;27.00
12753;BMP180;6440;44.616;2.032;2022-09-23T15:49:30;98726;;;26.80
12753;BMP180;6440;44.616;2.032;2022-09-23T15:51:57;98723;;;26.80
12753;BMP180;6440;44.616;2.032;2022-09-23T15:54:23;98714;;;26.80
12753;BMP180;6440;44.616;2.032;2022-09-23T15:56:52;98718;;;26.70
12753;BMP180;6440;44.616;2.032;2022-09-23T15:59:21;98719;;;26.60
12753;BMP180;6440;44.616;2.032;2022-09-23T16:01:48;98721;;;26.60
12753;BMP180;6440;44.616;2.032;2022-09-23T16:04:16;98723;;;26.50
12753;BMP180;6440;44.616;2.032;2022-09-23T16:06:45;98730;;;26.10
12753;BMP180;6440;44.616;2.032;2022-09-23T16:09:13;98737;;;25.90
12753;BMP180;6440;44.616;2.032;2022-09-23T16:11:46;98741;;;25.80